Time;durP1;ratioP1;P1;durP2;ratioP2;P2;SDS_P1;SDS_P2;PMS_P1;PMS_P2;Temp;Humidity;BMP_temperature;BMP_pressure;BME280_temperature;BME280_humidity;BME280_pressure;Samples;Min_cycle;Max_cycle;Signal;HPM_P1;HPM_P2
2022/04/20 00:02:23;;;;;;;;;;;11.20;99.90;;;;;;5065802;28;19932;-73
2022/04/20 00:04:50;;;;;;;;;;;11.10;99.90;;;;;;5049967;28;19925;-73
2022/04/20 00:07:18;;;;;;;;;;;11.10;99.90;;;;;;5050121;28;19929;-73
2022/04/20 00:09:45;;;;;;;;;;;11.10;99.90;;;;;;5049525;28;20396;-73
2022/04/20 00:12:12;;;;;;;;;;;11.10;99.90;;;;;;5050041;28;20277;-73
2022/04/20 00:14:38;;;;;;;;;;;11.00;99.90;;;;;;5049576;28;20032;-73
2022/04/20 00:17:06;;;;;;;;;;;11.00;99.90;;;;;;5049982;28;20418;-73
2022/04/20 00:19:33;;;;;;;;;;;11.00;99.90;;;;;;5065712;28;19924;-73
2022/04/20 00:22:00;;;;;;;;;;;11.00;99.90;;;;;;5066706;28;19932;-73
2022/04/20 00:24:28;;;;;;;;;;;10.90;99.90;;;;;;5066234;28;19932;-73
2022/04/20 00:26:55;;;;;;;;;;;10.90;99.90;;;;;;5066613;28;19936;-73
2022/04/20 00:29:21;;;;;;;;;;;10.90;99.90;;;;;;5049302;28;19932;-73
2022/04/20 00:31:48;;;;;;;;;;;10.90;99.90;;;;;;5049728;28;19925;-73
2022/04/20 00:34:15;;;;;;;;;;;10.80;99.90;;;;;;5049483;28;20012;-73
2022/04/20 00:36:42;;;;;;;;;;;10.90;99.90;;;;;;5049335;28;19932;-72
2022/04/20 00:39:09;;;;;;;;;;;10.80;99.90;;;;;;5066185;28;19948;-73
2022/04/20 00:41:37;;;;;;;;;;;10.80;99.90;;;;;;5049907;28;19956;-72
2022/04/20 00:44:05;;;;;;;;;;;10.80;99.90;;;;;;5066247;28;19925;-72
2022/04/20 00:46:32;;;;;;;;;;;10.80;99.90;;;;;;5066247;28;19925;-73
2022/04/20 00:48:59;;;;;;;;;;;10.80;99.90;;;;;;5065582;28;19937;-73
2022/04/20 00:51:26;;;;;;;;;;;10.70;99.90;;;;;;5065948;28;19929;-73
2022/04/20 00:53:53;;;;;;;;;;;10.70;99.90;;;;;;5049247;28;19929;-73
2022/04/20 00:56:20;;;;;;;;;;;10.70;99.90;;;;;;5049445;28;19932;-72
2022/04/20 00:58:48;;;;;;;;;;;10.60;99.90;;;;;;5049138;28;19932;-71
2022/04/20 01:01:16;;;;;;;;;;;10.70;99.90;;;;;;5065079;28;19932;-73
2022/04/20 01:03:44;;;;;;;;;;;10.70;99.90;;;;;;5048451;28;19940;-72
2022/04/20 01:06:22;;;;;;;;;;;10.70;99.90;;;;;;5050969;28;19925;-72
2022/04/20 01:09:08;;;;;;;;;;;10.60;99.90;;;;;;5047975;28;20003;-72
2022/04/20 01:12:11;;;;;;;;;;;10.60;99.90;;;;;;5008409;28;19965;-72
2022/04/20 01:14:58;;;;;;;;;;;10.60;99.90;;;;;;5029370;28;20414;-73
2022/04/20 01:17:45;;;;;;;;;;;10.50;99.90;;;;;;5030619;28;19936;-73
2022/04/20 01:20:35;;;;;;;;;;;10.50;99.90;;;;;;5029211;28;19925;-73
2022/04/20 01:23:12;;;;;;;;;;;10.50;99.90;;;;;;5029621;28;19925;-73
2022/04/20 01:26:02;;;;;;;;;;;10.40;99.90;;;;;;5029597;28;19932;-72
2022/04/20 01:28:51;;;;;;;;;;;10.40;99.90;;;;;;5029123;28;19926;-72
2022/04/20 01:31:31;;;;;;;;;;;10.40;99.90;;;;;;5029532;28;20024;-73
2022/04/20 01:34:36;;;;;;;;;;;10.30;99.90;;;;;;4988318;28;19976;-73
2022/04/20 01:37:05;;;;;;;;;;;10.30;99.90;;;;;;4987777;28;19933;-73
2022/04/20 01:39:32;;;;;;;;;;;10.20;99.90;;;;;;5014169;28;19925;-73
2022/04/20 01:41:59;;;;;;;;;;;10.20;99.90;;;;;;5029223;28;19932;-73
2022/04/20 01:44:27;;;;;;;;;;;10.10;99.90;;;;;;5029029;28;19925;-73
2022/04/20 01:47:04;;;;;;;;;;;10.00;99.90;;;;;;5029398;28;19925;-73
2022/04/20 01:50:03;;;;;;;;;;;10.00;99.90;;;;;;5007105;28;20420;-73
2022/04/20 01:52:42;;;;;;;;;;;10.00;99.90;;;;;;5028979;28;19964;-73
2022/04/20 01:55:27;;;;;;;;;;;10.00;99.90;;;;;;5030385;28;20022;-73
2022/04/20 01:58:20;;;;;;;;;;;10.00;99.90;;;;;;5029666;28;20465;-73
2022/04/20 02:02:34;;;;;;;;;;;10.00;99.90;;;;;;5028226;28;19925;-73
2022/04/20 02:03:50;;;;;;;;;;;9.90;99.90;;;;;;5028842;28;19948;-74
2022/04/20 02:06:17;;;;;;;;;;;9.90;99.90;;;;;;5032438;28;19920;-73
2022/04/20 02:08:50;;;;;;;;;;;9.80;99.90;;;;;;5032538;28;19926;-72
2022/04/20 02:11:49;;;;;;;;;;;9.80;99.90;;;;;;5033216;28;20014;-73
2022/04/20 02:14:26;;;;;;;;;;;9.80;99.90;;;;;;5032343;28;19929;-73
2022/04/20 02:17:01;;;;;;;;;;;9.70;99.90;;;;;;5032393;28;19979;-73
2022/04/20 02:19:38;;;;;;;;;;;9.70;99.90;;;;;;5032280;28;19926;-73
2022/04/20 02:22:15;;;;;;;;;;;9.60;99.90;;;;;;5032061;28;20030;-73
2022/04/20 02:24:44;;;;;;;;;;;9.60;99.90;;;;;;5032256;28;20455;-73
2022/04/20 02:27:11;;;;;;;;;;;9.50;99.90;;;;;;5032551;28;20059;-73
2022/04/20 02:29:38;;;;;;;;;;;9.50;99.90;;;;;;5031867;28;19925;-73
2022/04/20 02:32:05;;;;;;;;;;;9.50;99.90;;;;;;5032345;28;19925;-73
2022/04/20 02:34:32;;;;;;;;;;;9.50;99.90;;;;;;5031863;28;19925;-73
2022/04/20 02:36:59;;;;;;;;;;;9.50;99.90;;;;;;5032023;28;20293;-73
2022/04/20 02:39:27;;;;;;;;;;;9.40;99.90;;;;;;5032056;28;20023;-73
2022/04/20 02:41:55;;;;;;;;;;;9.40;99.90;;;;;;5032290;28;19935;-74
2022/04/20 02:44:22;;;;;;;;;;;9.40;99.90;;;;;;5031894;28;19925;-73
2022/04/20 02:46:49;;;;;;;;;;;9.30;99.90;;;;;;5032053;28;19932;-73
2022/04/20 02:49:17;;;;;;;;;;;9.30;99.90;;;;;;5031604;28;20079;-75
2022/04/20 02:51:44;;;;;;;;;;;9.20;99.90;;;;;;5031842;28;19928;-73
2022/04/20 02:54:11;;;;;;;;;;;9.20;99.90;;;;;;5031756;28;19940;-73
2022/04/20 02:56:39;;;;;;;;;;;9.10;99.90;;;;;;5031099;28;19932;-73
2022/04/20 02:59:08;;;;;;;;;;;9.10;99.90;;;;;;5030739;28;19948;-74
2022/04/20 03:01:37;;;;;;;;;;;9.10;99.90;;;;;;5048730;28;20388;-73
2022/04/20 03:04:09;;;;;;;;;;;9.10;99.90;;;;;;5033593;28;19925;-73
2022/04/20 03:06:36;;;;;;;;;;;9.00;99.90;;;;;;5031463;28;19960;-73
2022/04/20 03:09:10;;;;;;;;;;;9.00;99.90;;;;;;5031010;28;19925;-73
2022/04/20 03:11:40;;;;;;;;;;;9.00;99.90;;;;;;5031432;28;20032;-73
2022/04/20 03:14:08;;;;;;;;;;;8.90;99.90;;;;;;5030945;28;20020;-73
2022/04/20 03:16:36;;;;;;;;;;;8.90;99.90;;;;;;5030075;28;19936;-72
2022/04/20 03:19:07;;;;;;;;;;;8.80;99.90;;;;;;5031022;28;19929;-72
2022/04/20 03:21:34;;;;;;;;;;;8.70;99.90;;;;;;5031154;28;19925;-73
2022/04/20 03:24:03;;;;;;;;;;;8.70;99.90;;;;;;5030831;28;19929;-73
2022/04/20 03:26:48;;;;;;;;;;;8.70;99.90;;;;;;5033206;28;19932;-73
2022/04/20 03:29:28;;;;;;;;;;;8.70;99.90;;;;;;5049287;23;19917;-71
2022/04/20 03:31:55;;;;;;;;;;;8.70;99.90;;;;;;5079424;28;20023;-71
2022/04/20 03:34:22;;;;;;;;;;;8.60;99.90;;;;;;5090133;28;19960;-70
2022/04/20 03:36:48;;;;;;;;;;;8.60;99.90;;;;;;5091127;28;19924;-71
2022/04/20 03:39:15;;;;;;;;;;;8.50;99.90;;;;;;5090881;28;19974;-70
2022/04/20 03:41:44;;;;;;;;;;;8.50;99.90;;;;;;5091002;28;19935;-71
2022/04/20 03:44:10;;;;;;;;;;;8.50;99.90;;;;;;5090835;28;19931;-71
2022/04/20 03:46:39;;;;;;;;;;;8.40;99.90;;;;;;5090477;28;19924;-71
2022/04/20 03:49:05;;;;;;;;;;;8.40;99.90;;;;;;5090010;28;19924;-70
2022/04/20 03:51:32;;;;;;;;;;;8.40;99.90;;;;;;5091661;28;19928;-71
2022/04/20 03:54:00;;;;;;;;;;;8.40;99.90;;;;;;5090716;28;20429;-71
2022/04/20 03:57:03;;;;;;;;;;;8.40;99.90;;;;;;5090958;28;19924;-71
2022/04/20 03:59:16;;;;;;;;;;;8.40;99.90;;;;;;5090371;28;19931;-70
2022/04/20 04:01:46;;;;;;;;;;;8.40;99.90;;;;;;5090478;28;20395;-69
2022/04/20 04:04:13;;;;;;;;;;;8.30;99.90;;;;;;5090384;28;19924;-70
2022/04/20 04:06:42;;;;;;;;;;;8.30;99.90;;;;;;5091067;28;20367;-71
2022/04/20 04:09:09;;;;;;;;;;;8.30;99.90;;;;;;5090262;28;19934;-71
2022/04/20 04:11:37;;;;;;;;;;;8.20;99.90;;;;;;5090896;28;19931;-71
2022/04/20 04:14:04;;;;;;;;;;;8.20;99.90;;;;;;5090836;28;19935;-71
2022/04/20 04:16:36;;;;;;;;;;;8.20;99.90;;;;;;5090942;28;19924;-71
2022/04/20 04:19:04;;;;;;;;;;;8.10;99.90;;;;;;5090281;28;19931;-71
2022/04/20 04:21:35;;;;;;;;;;;8.00;99.90;;;;;;5090664;28;19923;-71
2022/04/20 04:24:02;;;;;;;;;;;7.90;99.90;;;;;;5090505;28;20434;-70
2022/04/20 04:26:34;;;;;;;;;;;7.90;99.90;;;;;;5090533;28;19999;-71
2022/04/20 04:29:01;;;;;;;;;;;7.80;99.90;;;;;;5090396;28;19924;-70
2022/04/20 04:31:28;;;;;;;;;;;7.70;99.90;;;;;;5090190;28;19924;-70
2022/04/20 04:33:56;;;;;;;;;;;7.70;99.90;;;;;;5090417;28;19924;-71
2022/04/20 04:36:25;;;;;;;;;;;7.60;99.90;;;;;;5090086;28;20311;-70
2022/04/20 04:38:55;;;;;;;;;;;7.60;99.90;;;;;;5090356;28;19973;-70
2022/04/20 04:41:26;;;;;;;;;;;7.50;99.90;;;;;;5090341;28;19931;-71
2022/04/20 04:43:55;;;;;;;;;;;7.50;99.90;;;;;;5089954;28;19928;-71
2022/04/20 04:49:26;;;;;;;;;;;7.40;99.90;;;;;;5090088;28;19920;-70
2022/04/20 04:51:56;;;;;;;;;;;7.40;99.90;;;;;;5090509;28;19928;-70
2022/04/20 04:54:23;;;;;;;;;;;7.40;99.90;;;;;;5089755;28;20450;-70
2022/04/20 04:56:51;;;;;;;;;;;7.50;99.90;;;;;;5090161;28;19924;-69
2022/04/20 04:59:19;;;;;;;;;;;7.50;99.90;;;;;;5089676;28;19928;-70
2022/04/20 05:01:49;;;;;;;;;;;7.50;99.90;;;;;;5078293;28;19924;-71
2022/04/20 05:04:19;;;;;;;;;;;7.60;99.90;;;;;;5063303;28;19932;-70
2022/04/20 05:06:49;;;;;;;;;;;7.70;99.90;;;;;;5069900;28;19928;-70
2022/04/20 05:09:38;;;;;;;;;;;7.70;99.90;;;;;;5070365;28;19971;-71
2022/04/20 05:12:08;;;;;;;;;;;7.80;99.90;;;;;;5055340;28;19925;-71
2022/04/20 05:14:37;;;;;;;;;;;7.90;99.90;;;;;;5049467;28;19932;-71
2022/04/20 05:17:04;;;;;;;;;;;8.00;99.90;;;;;;5049883;28;19968;-72
2022/04/20 05:19:31;;;;;;;;;;;8.00;99.90;;;;;;5054418;28;19964;-70
2022/04/20 05:22:04;;;;;;;;;;;8.10;99.90;;;;;;5069716;28;20019;-70
2022/04/20 05:24:38;;;;;;;;;;;8.10;99.90;;;;;;5069363;28;20395;-71
2022/04/20 05:27:10;;;;;;;;;;;8.20;99.90;;;;;;5069652;28;19924;-71
2022/04/20 05:29:53;;;;;;;;;;;8.30;99.90;;;;;;5069366;28;19932;-71
2022/04/20 05:32:20;;;;;;;;;;;8.30;99.90;;;;;;5069516;28;19950;-71
2022/04/20 05:34:48;;;;;;;;;;;8.40;99.90;;;;;;5069537;28;20023;-71
2022/04/20 05:42:49;;;;;;;;;;;8.50;99.90;;;;;;5073326;28;20307;-71
2022/04/20 05:45:17;;;;;;;;;;;8.70;99.90;;;;;;5064576;28;19940;-72
2022/04/20 05:47:49;;;;;;;;;;;8.70;99.90;;;;;;5058200;28;20323;-71
2022/04/20 05:50:16;;;;;;;;;;;8.70;99.90;;;;;;5052937;28;19971;-70
2022/04/20 05:52:44;;;;;;;;;;;8.80;99.90;;;;;;5053310;28;19928;-72
2022/04/20 05:55:14;;;;;;;;;;;8.90;99.90;;;;;;5053016;28;19925;-72
2022/04/20 05:57:41;;;;;;;;;;;8.90;99.90;;;;;;5052865;28;19941;-72
2022/04/20 06:00:08;;;;;;;;;;;9.00;99.90;;;;;;5053013;28;19932;-71
2022/04/20 06:02:42;;;;;;;;;;;9.00;99.90;;;;;;5055640;28;19971;-72
2022/04/20 06:05:12;;;;;;;;;;;9.10;99.90;;;;;;5063801;28;20003;-73
2022/04/20 06:07:47;;;;;;;;;;;9.10;99.90;;;;;;5058250;28;20281;-71
2022/04/20 06:10:29;;;;;;;;;;;9.20;99.90;;;;;;5062237;28;19933;-71
2022/04/20 06:12:59;;;;;;;;;;;9.30;99.90;;;;;;5052856;28;19924;-72
2022/04/20 06:15:53;;;;;;;;;;;9.40;99.90;;;;;;5052768;28;19931;-72
2022/04/20 06:18:20;;;;;;;;;;;9.50;99.90;;;;;;5053898;28;19994;-72
2022/04/20 06:21:07;;;;;;;;;;;9.50;99.90;;;;;;5052818;28;19932;-73
2022/04/20 06:23:54;;;;;;;;;;;9.60;99.90;;;;;;5049389;28;19935;-70
2022/04/20 06:26:34;;;;;;;;;;;9.70;99.90;;;;;;5060881;28;19924;-71
2022/04/20 06:29:27;;;;;;;;;;;9.70;99.90;;;;;;5052455;28;19925;-71
2022/04/20 06:32:16;;;;;;;;;;;9.70;99.90;;;;;;5052582;28;19925;-71
2022/04/20 06:35:02;;;;;;;;;;;9.80;99.90;;;;;;5052537;28;19948;-71
2022/04/20 06:37:50;;;;;;;;;;;9.80;99.90;;;;;;5052249;28;19979;-71
2022/04/20 06:40:33;;;;;;;;;;;9.90;99.90;;;;;;5051878;28;20415;-71
2022/04/20 06:43:20;;;;;;;;;;;9.90;99.90;;;;;;5053148;28;19932;-71
2022/04/20 06:46:05;;;;;;;;;;;9.90;99.90;;;;;;5054046;28;20075;-70
2022/04/20 06:48:36;;;;;;;;;;;10.00;99.90;;;;;;5052219;28;19967;-71
2022/04/20 06:51:23;;;;;;;;;;;10.00;99.90;;;;;;5051974;28;20010;-71
2022/04/20 06:59:35;;;;;;;;;;;10.20;99.90;;;;;;5033563;28;20011;-71
2022/04/20 07:02:20;;;;;;;;;;;10.20;99.90;;;;;;5063488;28;19925;-71
2022/04/20 07:05:08;;;;;;;;;;;10.30;99.90;;;;;;5063640;28;19931;-71
2022/04/20 07:07:58;;;;;;;;;;;10.40;99.90;;;;;;5059681;28;19948;-71
2022/04/20 07:10:43;;;;;;;;;;;10.40;99.90;;;;;;5063417;28;20010;-72
2022/04/20 07:13:14;;;;;;;;;;;10.50;99.90;;;;;;5062893;28;19924;-72
2022/04/20 07:15:42;;;;;;;;;;;10.60;99.90;;;;;;5054650;28;19948;-71
2022/04/20 07:18:10;;;;;;;;;;;10.70;99.90;;;;;;5058299;28;19929;-71
2022/04/20 07:20:55;;;;;;;;;;;10.80;99.90;;;;;;5052724;28;19935;-72
2022/04/20 07:23:54;;;;;;;;;;;10.80;99.90;;;;;;5051511;28;19935;-71
2022/04/20 07:26:41;;;;;;;;;;;10.90;99.90;;;;;;5051087;28;19963;-72
2022/04/20 07:29:17;;;;;;;;;;;10.90;99.90;;;;;;5050874;28;19960;-72
2022/04/20 07:31:59;;;;;;;;;;;11.00;99.90;;;;;;5051451;28;20452;-72
2022/04/20 07:34:44;;;;;;;;;;;11.00;99.90;;;;;;5053624;28;19932;-71
2022/04/20 07:37:25;;;;;;;;;;;11.10;99.90;;;;;;5059374;28;19925;-71
2022/04/20 07:40:12;;;;;;;;;;;11.20;99.90;;;;;;5059372;28;19931;-71
2022/04/20 07:42:52;;;;;;;;;;;11.20;99.90;;;;;;5057463;28;20012;-72
2022/04/20 07:45:48;;;;;;;;;;;11.20;99.90;;;;;;5047796;28;19967;-72
2022/04/20 07:48:29;;;;;;;;;;;11.20;99.90;;;;;;5052496;28;19925;-71
2022/04/20 07:51:24;;;;;;;;;;;11.30;99.90;;;;;;5063378;28;19931;-71
2022/04/20 07:54:10;;;;;;;;;;;11.30;99.90;;;;;;5054919;28;19940;-71
2022/04/20 07:56:59;;;;;;;;;;;11.40;99.90;;;;;;5045207;28;20025;-71
2022/04/20 07:59:52;;;;;;;;;;;11.50;99.90;;;;;;5066281;28;20414;-71
2022/04/20 08:02:25;;;;;;;;;;;11.50;99.90;;;;;;5069763;28;19929;-72
2022/04/20 08:05:14;;;;;;;;;;;11.60;99.90;;;;;;5070436;28;19924;-72
2022/04/20 08:07:42;;;;;;;;;;;11.70;99.90;;;;;;5070624;28;19964;-72
2022/04/20 08:10:10;;;;;;;;;;;11.80;99.90;;;;;;5070172;28;20007;-72
2022/04/20 08:12:37;;;;;;;;;;;11.90;99.90;;;;;;5070538;28;19970;-72
2022/04/20 08:15:07;;;;;;;;;;;12.10;99.90;;;;;;5070105;28;20354;-72
2022/04/20 08:17:41;;;;;;;;;;;12.20;99.90;;;;;;5070158;28;20392;-73
2022/04/20 08:20:47;;;;;;;;;;;12.20;99.90;;;;;;5070859;28;19969;-72
2022/04/20 08:23:14;;;;;;;;;;;12.30;99.90;;;;;;5070081;28;20358;-72
2022/04/20 08:25:41;;;;;;;;;;;12.40;99.90;;;;;;5070072;28;19924;-72
2022/04/20 08:28:08;;;;;;;;;;;12.40;99.90;;;;;;5070402;28;19954;-72
2022/04/20 08:30:35;;;;;;;;;;;12.50;99.90;;;;;;5069897;28;19932;-72
2022/04/20 08:33:02;;;;;;;;;;;12.60;99.90;;;;;;5070367;28;19924;-73
2022/04/20 08:35:29;;;;;;;;;;;12.70;99.90;;;;;;5069979;28;19924;-72
2022/04/20 08:37:57;;;;;;;;;;;12.70;99.90;;;;;;5069933;28;20354;-72
2022/04/20 08:40:24;;;;;;;;;;;12.70;99.90;;;;;;5069919;28;19932;-72
2022/04/20 08:42:51;;;;;;;;;;;12.70;99.90;;;;;;5070168;28;19947;-72
2022/04/20 08:45:20;;;;;;;;;;;12.70;99.90;;;;;;5069898;28;19974;-72
2022/04/20 08:47:49;;;;;;;;;;;12.90;99.90;;;;;;5069973;28;19936;-72
2022/04/20 08:50:17;;;;;;;;;;;12.80;99.90;;;;;;5069626;28;19970;-72
2022/04/20 08:52:49;;;;;;;;;;;12.90;99.90;;;;;;5070078;28;19978;-72
2022/04/20 08:55:18;;;;;;;;;;;13.10;99.90;;;;;;5069508;28;19924;-72
2022/04/20 08:57:45;;;;;;;;;;;13.20;99.90;;;;;;5069769;28;20340;-72
2022/04/20 09:00:13;;;;;;;;;;;13.30;99.90;;;;;;5066420;28;19924;-72
2022/04/20 09:02:40;;;;;;;;;;;13.20;99.90;;;;;;5059574;28;19925;-72
2022/04/20 09:05:07;;;;;;;;;;;13.20;99.90;;;;;;5049814;28;19970;-72
2022/04/20 09:07:34;;;;;;;;;;;13.20;99.90;;;;;;5049634;28;20343;-73
2022/04/20 09:10:01;;;;;;;;;;;13.40;99.90;;;;;;5049159;28;20351;-72
2022/04/20 09:12:29;;;;;;;;;;;13.50;99.90;;;;;;5049315;28;20308;-72
2022/04/20 09:14:56;;;;;;;;;;;13.50;99.90;;;;;;5052036;28;19925;-72
2022/04/20 09:17:26;;;;;;;;;;;13.50;99.90;;;;;;5053846;28;19947;-73
2022/04/20 09:19:53;;;;;;;;;;;13.50;99.90;;;;;;5053702;28;20130;-72
2022/04/20 09:22:21;;;;;;;;;;;13.50;99.90;;;;;;5053914;28;19925;-72
2022/04/20 09:24:58;;;;;;;;;;;13.70;99.90;;;;;;5052985;28;19932;-72
2022/04/20 09:27:26;;;;;;;;;;;13.80;99.90;;;;;;5053912;28;19925;-73
2022/04/20 09:29:55;;;;;;;;;;;13.90;99.90;;;;;;5053264;28;20430;-72
2022/04/20 09:32:32;;;;;;;;;;;14.00;99.90;;;;;;5053692;28;19960;-72
2022/04/20 09:34:59;;;;;;;;;;;14.10;99.90;;;;;;5053220;28;19935;-72
2022/04/20 09:37:26;;;;;;;;;;;14.10;99.90;;;;;;5054208;28;19925;-72
2022/04/20 09:39:58;;;;;;;;;;;14.10;99.90;;;;;;5054097;28;19929;-71
2022/04/20 09:42:25;;;;;;;;;;;14.10;99.90;;;;;;5053321;28;20435;-72
2022/04/20 09:44:53;;;;;;;;;;;14.30;99.90;;;;;;5053729;28;19925;-72
2022/04/20 09:50:07;;;;;;;;;;;14.40;99.90;;;;;;5060419;28;19924;-72
2022/04/20 09:52:38;;;;;;;;;;;14.50;99.90;;;;;;5073777;28;19939;-72
2022/04/20 09:55:06;;;;;;;;;;;14.50;99.90;;;;;;5073326;28;19924;-72
2022/04/20 09:57:33;;;;;;;;;;;14.60;99.90;;;;;;5073374;28;20023;-72
2022/04/20 10:00:01;;;;;;;;;;;14.70;99.90;;;;;;5072950;28;19925;-72
2022/04/20 10:02:30;;;;;;;;;;;14.80;99.90;;;;;;5068164;28;19924;-72
2022/04/20 10:04:57;;;;;;;;;;;15.00;99.90;;;;;;5063576;28;20027;-72
2022/04/20 10:07:24;;;;;;;;;;;15.10;99.90;;;;;;5052597;28;19929;-72
2022/04/20 10:09:51;;;;;;;;;;;15.20;99.90;;;;;;5052805;28;19932;-72
2022/04/20 10:12:18;;;;;;;;;;;15.30;99.90;;;;;;5053179;28;19975;-72
2022/04/20 10:17:37;;;;;;;;;;;15.50;99.90;;;;;;5053158;28;19928;-72
2022/04/20 10:20:04;;;;;;;;;;;15.70;99.90;;;;;;5052594;28;19929;-72
2022/04/20 10:22:32;;;;;;;;;;;15.80;99.90;;;;;;5060516;28;19931;-72
2022/04/20 10:25:00;;;;;;;;;;;15.80;99.40;;;;;;5051631;28;20385;-72
2022/04/20 10:27:30;;;;;;;;;;;15.80;99.90;;;;;;5048079;28;19929;-72
2022/04/20 10:29:58;;;;;;;;;;;15.90;99.90;;;;;;5064320;28;19932;-73
2022/04/20 10:32:26;;;;;;;;;;;16.00;99.90;;;;;;5071436;28;19931;-72
2022/04/20 10:35:10;;;;;;;;;;;16.20;99.90;;;;;;5082789;28;19923;-71
2022/04/20 10:38:07;;;;;;;;;;;16.20;99.90;;;;;;5092511;28;19935;-71
2022/04/20 10:40:51;;;;;;;;;;;16.30;98.90;;;;;;5091667;28;19931;-71
2022/04/20 10:43:18;;;;;;;;;;;16.30;98.80;;;;;;5091772;28;19975;-71
2022/04/20 10:46:02;;;;;;;;;;;16.40;99.10;;;;;;5092214;28;19928;-71
2022/04/20 10:48:42;;;;;;;;;;;16.50;99.00;;;;;;5051919;28;20396;-72
2022/04/20 10:51:14;;;;;;;;;;;16.60;98.50;;;;;;5051619;28;19935;-72
2022/04/20 10:53:43;;;;;;;;;;;16.50;98.60;;;;;;5051651;28;20468;-71
2022/04/20 10:56:10;;;;;;;;;;;16.50;98.10;;;;;;5052064;28;19933;-71
2022/04/20 10:58:38;;;;;;;;;;;16.60;98.90;;;;;;5051785;28;19924;-72
2022/04/20 11:01:09;;;;;;;;;;;16.50;99.60;;;;;;5051687;28;19928;-71
2022/04/20 11:03:54;;;;;;;;;;;16.70;98.50;;;;;;5051543;28;20385;-72
2022/04/20 11:06:26;;;;;;;;;;;16.80;98.30;;;;;;5051406;28;19986;-72
2022/04/20 11:08:53;;;;;;;;;;;16.90;97.90;;;;;;5051418;28;19925;-72
2022/04/20 11:20:01;;;;;;;;;;;17.60;97.80;;;;;;5070902;28;19928;-72
2022/04/20 11:22:31;;;;;;;;;;;17.70;97.50;;;;;;5071476;28;19929;-72
2022/04/20 11:25:06;;;;;;;;;;;17.70;97.30;;;;;;5051153;28;19929;-72
2022/04/20 11:27:36;;;;;;;;;;;17.90;97.70;;;;;;5051647;28;19925;-72
2022/04/20 11:30:04;;;;;;;;;;;18.00;96.40;;;;;;5050769;28;19964;-71
2022/04/20 11:32:31;;;;;;;;;;;18.10;96.70;;;;;;5051314;28;19925;-72
2022/04/20 11:35:06;;;;;;;;;;;18.20;96.70;;;;;;5051274;28;19925;-72
2022/04/20 11:37:34;;;;;;;;;;;18.00;95.10;;;;;;5050107;28;19924;-71
2022/04/20 11:40:11;;;;;;;;;;;17.70;96.40;;;;;;5050664;28;19978;-71
2022/04/20 11:42:38;;;;;;;;;;;18.00;96.30;;;;;;5051116;28;19929;-72
2022/04/20 11:45:06;;;;;;;;;;;18.50;97.40;;;;;;5050681;28;19925;-72
2022/04/20 11:47:39;;;;;;;;;;;20.40;97.20;;;;;;5051190;28;20034;-72
2022/04/20 11:50:08;;;;;;;;;;;22.70;96.90;;;;;;5049835;28;19925;-72
2022/04/20 11:53:03;;;;;;;;;;;24.30;95.70;;;;;;5051080;28;19940;-72
2022/04/20 11:55:48;;;;;;;;;;;25.20;95.80;;;;;;5052292;28;19932;-72
2022/04/20 11:58:15;;;;;;;;;;;26.50;95.00;;;;;;5050767;28;19925;-72
2022/04/20 12:00:43;;;;;;;;;;;27.40;93.40;;;;;;5050134;28;19986;-72
2022/04/20 12:03:09;;;;;;;;;;;27.90;93.20;;;;;;5051663;28;19925;-72
2022/04/20 12:05:36;;;;;;;;;;;27.90;93.00;;;;;;5050342;28;20020;-73
2022/04/20 12:08:04;;;;;;;;;;;28.30;92.80;;;;;;5050636;28;20011;-74
2022/04/20 12:10:32;;;;;;;;;;;27.70;91.90;;;;;;5049999;28;19932;-73
2022/04/20 12:13:02;;;;;;;;;;;27.50;92.20;;;;;;5050211;28;20019;-73
2022/04/20 12:15:29;;;;;;;;;;;27.10;91.10;;;;;;5050157;28;19926;-73
2022/04/20 12:17:59;;;;;;;;;;;26.10;91.50;;;;;;5050118;28;19931;-73
2022/04/20 12:20:27;;;;;;;;;;;26.40;91.30;;;;;;5049723;28;19932;-73
2022/04/20 12:23:06;;;;;;;;;;;27.20;91.70;;;;;;5056755;28;19924;-73
2022/04/20 12:25:33;;;;;;;;;;;27.80;91.50;;;;;;5090089;28;19927;-73
2022/04/20 12:28:35;;;;;;;;;;;28.30;91.30;;;;;;5090340;28;19977;-73
2022/04/20 12:30:48;;;;;;;;;;;28.10;91.10;;;;;;5071074;28;19968;-72
2022/04/20 12:33:21;;;;;;;;;;;27.00;90.70;;;;;;5058810;28;19985;-73
2022/04/20 12:35:58;;;;;;;;;;;27.40;91.10;;;;;;5058906;28;19925;-72
2022/04/20 12:38:44;;;;;;;;;;;27.70;90.80;;;;;;5057598;28;19925;-73
2022/04/20 12:41:30;;;;;;;;;;;27.80;90.40;;;;;;5050794;28;19924;-72
2022/04/20 12:43:57;;;;;;;;;;;27.90;90.60;;;;;;5060255;28;19928;-71
2022/04/20 12:46:33;;;;;;;;;;;27.40;91.20;;;;;;5066366;28;20310;-73
2022/04/20 12:49:00;;;;;;;;;;;28.00;90.30;;;;;;5069685;28;19984;-73
2022/04/20 12:51:27;;;;;;;;;;;27.50;90.20;;;;;;5067276;28;19925;-71
2022/04/20 12:53:55;;;;;;;;;;;27.10;90.40;;;;;;5059108;28;19925;-79
2022/04/20 13:02:03;;;;;;;;;;;26.50;90.10;;;;;;5051228;28;19920;-71
2022/04/20 13:04:30;;;;;;;;;;;26.80;89.20;;;;;;5058423;28;19970;-72
2022/04/20 13:06:57;;;;;;;;;;;27.20;90.20;;;;;;5053212;28;19980;-74
2022/04/20 13:09:26;;;;;;;;;;;28.00;91.20;;;;;;5050342;28;19995;-73
2022/04/20 13:11:53;;;;;;;;;;;28.30;90.20;;;;;;5050271;28;20590;-72
2022/04/20 13:14:19;;;;;;;;;;;27.60;90.10;;;;;;5049578;28;20021;-72
2022/04/20 13:16:46;;;;;;;;;;;27.30;89.10;;;;;;5050636;28;19924;-72
2022/04/20 13:19:13;;;;;;;;;;;27.50;90.30;;;;;;5049044;28;20362;-72
2022/04/20 13:21:42;;;;;;;;;;;27.50;89.80;;;;;;5047855;28;19940;-73
2022/04/20 13:24:08;;;;;;;;;;;27.80;90.10;;;;;;5048237;28;19924;-73
2022/04/20 13:29:22;;;;;;;;;;;28.70;89.60;;;;;;5048210;28;19925;-73
2022/04/20 13:31:49;;;;;;;;;;;28.90;89.00;;;;;;5048581;28;19935;-72
2022/04/20 13:34:16;;;;;;;;;;;28.40;89.70;;;;;;5048146;28;19924;-74
2022/04/20 13:36:43;;;;;;;;;;;28.90;89.30;;;;;;5049424;28;19947;-72
2022/04/20 13:39:09;;;;;;;;;;;28.90;89.90;;;;;;5049116;28;20327;-71
2022/04/20 13:41:38;;;;;;;;;;;28.90;88.60;;;;;;5049659;28;19932;-73
2022/04/20 13:44:05;;;;;;;;;;;28.50;89.10;;;;;;5049199;28;19931;-72
2022/04/20 13:46:32;;;;;;;;;;;28.90;89.20;;;;;;5049371;28;19929;-73
2022/04/20 13:48:59;;;;;;;;;;;29.30;90.00;;;;;;5049233;28;19932;-72
2022/04/20 13:51:26;;;;;;;;;;;29.80;88.30;;;;;;5049255;28;19978;-72
2022/04/20 13:53:53;;;;;;;;;;;29.30;88.10;;;;;;5049280;28;19924;-72
2022/04/20 13:56:20;;;;;;;;;;;29.30;88.90;;;;;;5049049;28;19951;-72
2022/04/20 13:58:48;;;;;;;;;;;29.10;86.80;;;;;;5049108;28;19932;-73
2022/04/20 14:01:16;;;;;;;;;;;28.90;87.40;;;;;;5051549;28;20028;-73
2022/04/20 14:03:43;;;;;;;;;;;29.60;87.00;;;;;;5052672;28;19932;-73
2022/04/20 14:06:11;;;;;;;;;;;29.60;87.20;;;;;;5052979;28;19925;-72
2022/04/20 14:08:38;;;;;;;;;;;29.50;87.90;;;;;;5052781;28;19947;-73
2022/04/20 14:11:05;;;;;;;;;;;28.50;87.90;;;;;;5060627;28;19925;-72
2022/04/20 14:13:31;;;;;;;;;;;27.40;88.20;;;;;;5072657;28;19982;-73
2022/04/20 14:16:00;;;;;;;;;;;27.30;88.60;;;;;;5072418;28;19974;-72
2022/04/20 14:18:26;;;;;;;;;;;27.30;88.60;;;;;;5072478;28;20454;-72
2022/04/20 14:20:54;;;;;;;;;;;27.90;89.50;;;;;;5072554;28;19963;-72
2022/04/20 14:23:21;;;;;;;;;;;28.30;88.50;;;;;;5072370;28;19928;-73
2022/04/20 14:34:13;;;;;;;;;;;29.90;88.80;;;;;;4994368;28;20413;-73
2022/04/20 14:36:43;;;;;;;;;;;30.70;90.10;;;;;;5052573;28;19993;-72
2022/04/20 14:39:10;;;;;;;;;;;30.50;90.00;;;;;;5071966;28;20376;-72
2022/04/20 14:41:37;;;;;;;;;;;29.30;89.50;;;;;;5072346;28;19924;-72
2022/04/20 14:44:04;;;;;;;;;;;29.10;88.60;;;;;;5071749;28;19974;-72
2022/04/20 14:46:32;;;;;;;;;;;29.20;88.30;;;;;;5072026;28;19974;-72
2022/04/20 14:48:58;;;;;;;;;;;29.80;88.30;;;;;;5071726;28;19925;-72
2022/04/20 14:51:25;;;;;;;;;;;30.10;87.30;;;;;;5071870;28;19932;-73
2022/04/20 14:53:52;;;;;;;;;;;29.40;87.00;;;;;;5071835;28;19935;-73
2022/04/20 14:56:19;;;;;;;;;;;29.70;88.30;;;;;;5072166;28;19924;-72
2022/04/20 14:58:48;;;;;;;;;;;30.20;87.80;;;;;;5071771;28;19939;-72
2022/04/20 15:01:14;;;;;;;;;;;30.30;87.30;;;;;;5071429;28;19928;-72
2022/04/20 15:03:43;;;;;;;;;;;29.60;87.00;;;;;;5062478;28;19968;-73
2022/04/20 15:06:10;;;;;;;;;;;30.00;87.10;;;;;;5054245;28;19924;-72
2022/04/20 15:08:36;;;;;;;;;;;29.80;87.90;;;;;;5051633;28;19924;-72
2022/04/20 15:11:03;;;;;;;;;;;29.40;88.50;;;;;;5051437;28;19928;-72
2022/04/20 15:13:31;;;;;;;;;;;29.30;87.60;;;;;;5051708;28;19929;-72
2022/04/20 15:15:58;;;;;;;;;;;29.50;87.80;;;;;;5051253;28;19924;-72
2022/04/20 15:18:25;;;;;;;;;;;29.00;88.70;;;;;;5051638;28;19928;-72
2022/04/20 15:20:53;;;;;;;;;;;29.10;88.40;;;;;;5051345;28;19925;-72
2022/04/20 15:23:20;;;;;;;;;;;28.70;88.40;;;;;;5051191;28;19978;-72
2022/04/20 15:25:47;;;;;;;;;;;29.30;87.70;;;;;;5051419;28;20016;-72
2022/04/20 15:28:13;;;;;;;;;;;29.40;87.40;;;;;;5051336;28;19929;-72
2022/04/20 15:30:40;;;;;;;;;;;28.90;88.60;;;;;;5051498;28;19928;-73
2022/04/20 15:33:07;;;;;;;;;;;29.10;88.60;;;;;;5051379;28;20289;-71
2022/04/20 15:35:35;;;;;;;;;;;29.30;89.80;;;;;;5050881;28;20396;-72